Time;durP1;ratioP1;P1;durP2;ratioP2;P2;SDS_P1;SDS_P2;PMS_P1;PMS_P2;Temp;Humidity;BMP_temperature;BMP_pressure;BME280_temperature;BME280_humidity;BME280_pressure;Samples;Min_cycle;Max_cycle;Signal;HPM_P1;HPM_P2
2023/09/02 00:01:47;;;;;;;9.70;3.70;;;;;;;24.18;67.47;99804.78;4996683;28;20029;-75
2023/09/02 00:04:12;;;;;;;13.77;3.78;;;;;;;24.15;67.82;99807.69;4996874;28;20483;-75
2023/09/02 00:06:38;;;;;;;8.37;3.10;;;;;;;24.15;67.59;99815.75;4995401;28;20027;-75
2023/09/02 00:09:03;;;;;;;13.83;4.10;;;;;;;24.08;67.72;99815.28;4996779;28;20031;-74
2023/09/02 00:11:29;;;;;;;11.20;3.10;;;;;;;24.07;67.63;99809.06;4996132;28;20050;-74
2023/09/02 00:13:54;;;;;;;10.70;3.27;;;;;;;24.06;67.87;99810.03;4996702;28;20034;-75
2023/09/02 00:16:19;;;;;;;10.17;3.10;;;;;;;24.08;67.66;99816.16;4996250;28;20467;-75
2023/09/02 00:18:46;;;;;;;13.60;3.67;;;;;;;24.13;67.33;99817.69;4999749;28;20395;-75
2023/09/02 00:21:11;;;;;;;12.43;3.42;;;;;;;24.14;67.35;99819.41;5000611;28;20498;-74
2023/09/02 00:23:39;;;;;;;11.82;3.42;;;;;;;24.15;67.30;99815.75;5000135;28;20061;-74
2023/09/02 00:26:05;;;;;;;9.40;3.00;;;;;;;24.15;67.56;99813.94;5000140;28;20018;-74
2023/09/02 00:28:30;;;;;;;10.20;2.97;;;;;;;24.16;67.49;99812.09;5000221;28;20038;-75
2023/09/02 00:30:55;;;;;;;14.43;3.63;;;;;;;24.19;67.15;99817.25;5000334;28;20117;-74
2023/09/02 00:33:21;;;;;;;9.60;2.83;;;;;;;24.23;67.24;99819.63;4998969;28;20030;-75
2023/09/02 00:35:46;;;;;;;11.55;3.10;;;;;;;24.30;66.84;99822.78;5000201;28;20026;-75
2023/09/02 00:38:12;;;;;;;15.47;3.40;;;;;;;24.31;67.12;99824.50;5000093;28;20030;-75
2023/09/02 00:40:42;;;;;;;9.80;3.03;;;;;;;24.29;67.14;99821.06;4998910;28;20053;-75
2023/09/02 00:43:07;;;;;;;10.75;3.30;;;;;;;24.26;67.64;99820.41;4998488;28;20037;-74
2023/09/02 00:45:34;;;;;;;13.35;3.80;;;;;;;24.20;67.74;99830.63;4999973;28;20026;-74
2023/09/02 00:48:02;;;;;;;11.20;3.57;;;;;;;24.19;67.46;99826.19;4999905;28;20583;-74
2023/09/02 00:50:27;;;;;;;10.57;3.80;;;;;;;24.20;67.35;99830.63;5000132;28;20045;-74
2023/09/02 00:52:53;;;;;;;11.60;3.10;;;;;;;24.21;67.29;99828.78;5000035;28;20082;-74
2023/09/02 00:55:20;;;;;;;13.80;3.60;;;;;;;24.24;67.10;99828.59;4999851;28;20026;-74
2023/09/02 00:57:45;;;;;;;9.13;3.00;;;;;;;24.22;66.73;99835.88;4999755;28;20062;-74
2023/09/02 01:00:13;;;;;;;9.32;2.28;;;;;;;24.16;65.47;99833.59;4999883;28;20029;-74
2023/09/02 01:02:38;;;;;;;7.40;2.35;;;;;;;24.10;65.52;99840.25;4999899;28;20414;-74
2023/09/02 01:05:04;;;;;;;7.93;2.93;;;;;;;24.03;64.60;99842.53;4999940;28;20029;-73
2023/09/02 01:07:32;;;;;;;6.22;2.00;;;;;;;23.93;64.39;99846.75;4999743;28;20031;-74
2023/09/02 01:09:58;;;;;;;5.50;2.03;;;;;;;23.84;63.93;99842.84;4999731;28;20030;-74
2023/09/02 01:12:23;;;;;;;5.60;1.80;;;;;;;23.74;63.82;99844.44;4999452;28;20528;-75
2023/09/02 01:14:48;;;;;;;6.53;1.97;;;;;;;23.68;63.92;99843.00;4999379;28;20027;-74
2023/09/02 01:17:14;;;;;;;6.33;2.00;;;;;;;23.61;63.83;99839.00;4999267;28;20442;-74
2023/09/02 01:19:41;;;;;;;6.57;1.90;;;;;;;23.56;63.88;99836.59;4999147;28;20542;-74
2023/09/02 01:22:28;;;;;;;5.53;1.90;;;;;;;23.51;63.59;99839.63;4999455;28;20031;-74
2023/09/02 01:25:02;;;;;;;5.15;2.08;;;;;;;23.48;63.92;99837.09;4999139;28;20014;-74
2023/09/02 01:27:39;;;;;;;6.30;2.05;;;;;;;23.44;63.45;99832.91;4998930;28;20023;-74
2023/09/02 01:30:26;;;;;;;5.55;1.80;;;;;;;23.43;63.58;99831.19;4998855;28;20026;-74
2023/09/02 01:32:53;;;;;;;6.45;2.00;;;;;;;23.45;63.47;99821.19;4999147;28;20454;-74
2023/09/02 01:35:32;;;;;;;7.50;1.80;;;;;;;23.39;63.29;99815.34;4999323;28;20053;-74
2023/09/02 01:38:00;;;;;;;5.18;1.60;;;;;;;23.38;63.45;99819.88;4998920;28;20033;-74
2023/09/02 01:40:27;;;;;;;5.25;1.40;;;;;;;23.39;63.26;99812.66;4999056;28;20030;-74
2023/09/02 01:42:56;;;;;;;4.15;1.50;;;;;;;23.40;63.33;99811.72;4998571;28;20082;-74
2023/09/02 01:45:24;;;;;;;6.13;1.65;;;;;;;23.36;63.27;99816.41;4999104;28;20033;-74
2023/09/02 01:47:51;;;;;;;4.77;1.83;;;;;;;23.37;63.19;99821.69;4999161;28;20022;-74
2023/09/02 01:50:21;;;;;;;6.05;1.88;;;;;;;23.30;63.17;99831.09;4998864;28;20046;-74
2023/09/02 01:52:47;;;;;;;5.30;1.60;;;;;;;23.29;63.42;99839.28;4998843;28;20038;-73
2023/09/02 01:55:13;;;;;;;5.57;1.60;;;;;;;23.26;63.12;99845.69;4997375;28;20049;-73
2023/09/02 01:57:40;;;;;;;6.03;1.77;;;;;;;23.15;63.02;99842.78;4998596;28;20034;-74
2023/09/02 02:00:06;;;;;;;5.40;1.70;;;;;;;23.07;63.31;99846.00;4997388;28;20022;-74
2023/09/02 02:02:32;;;;;;;5.32;1.60;;;;;;;23.02;63.21;99851.63;4998442;28;20104;-74
2023/09/02 02:04:59;;;;;;;5.60;1.67;;;;;;;23.04;63.06;99835.44;4998719;28;20019;-73
2023/09/02 02:07:29;;;;;;;5.28;1.40;;;;;;;23.05;63.04;99826.44;4998381;28;20022;-73
2023/09/02 02:09:59;;;;;;;6.32;1.58;;;;;;;23.00;62.89;99833.88;4998605;28;20455;-73
2023/09/02 02:12:25;;;;;;;5.63;1.30;;;;;;;22.94;63.20;99840.53;4998182;28;20054;-73
2023/09/02 02:14:51;;;;;;;4.05;1.30;;;;;;;22.91;62.79;99840.72;4996842;28;20070;-74
2023/09/02 02:17:16;;;;;;;4.70;1.50;;;;;;;22.89;62.75;99826.50;4997753;28;20064;-74
2023/09/02 02:19:44;;;;;;;6.28;1.60;;;;;;;22.84;62.76;99825.94;4998346;28;20035;-73
2023/09/02 02:22:10;;;;;;;4.50;1.30;;;;;;;22.77;62.72;99833.50;4998297;28;20046;-73
2023/09/02 02:24:35;;;;;;;12.00;1.90;;;;;;;22.73;62.98;99854.31;4998249;28;20034;-73
2023/09/02 02:27:02;;;;;;;6.28;1.55;;;;;;;22.73;62.90;99858.81;4984859;28;20023;-74
2023/09/02 02:29:27;;;;;;;5.22;1.40;;;;;;;22.68;62.80;99845.69;4997934;28;20463;-73
2023/09/02 02:31:53;;;;;;;6.77;1.57;;;;;;;22.65;62.94;99852.09;4997942;28;20121;-73
2023/09/02 02:34:18;;;;;;;4.20;1.17;;;;;;;22.60;63.02;99853.34;4998126;28;20026;-74
2023/09/02 02:36:44;;;;;;;5.57;1.52;;;;;;;22.53;63.20;99860.88;4997852;28;20023;-74
2023/09/02 02:39:09;;;;;;;5.93;1.50;;;;;;;22.44;63.57;99864.13;4998041;28;20044;-74
2023/09/02 02:41:35;;;;;;;4.60;1.37;;;;;;;22.35;63.91;99865.53;4996927;28;20046;-74
2023/09/02 02:44:00;;;;;;;4.10;1.20;;;;;;;22.31;63.89;99859.50;4997884;28;20033;-74
2023/09/02 02:46:26;;;;;;;4.38;1.45;;;;;;;22.25;64.12;99843.75;4997700;28;20022;-74
2023/09/02 02:48:51;;;;;;;6.90;1.50;;;;;;;22.26;63.90;99834.75;4997983;28;20102;-73
2023/09/02 02:51:16;;;;;;;4.10;1.40;;;;;;;22.27;63.75;99849.88;4997503;28;20526;-74
2023/09/02 02:53:42;;;;;;;5.03;1.27;;;;;;;22.28;63.84;99854.28;4997682;28;20461;-73
2023/09/02 02:56:07;;;;;;;6.20;1.60;;;;;;;22.30;63.85;99841.66;4995802;28;20442;-74
2023/09/02 02:58:33;;;;;;;4.43;1.43;;;;;;;22.30;64.11;99825.56;4997778;28;20026;-74
2023/09/02 03:01:06;;;;;;;6.47;1.67;;;;;;;22.32;63.97;99837.09;4997097;28;20014;-74
2023/09/02 03:03:32;;;;;;;7.05;1.73;;;;;;;22.29;63.98;99844.44;4997891;28;20026;-74
2023/09/02 03:06:04;;;;;;;4.88;1.40;;;;;;;22.23;64.17;99846.53;4997543;28;20161;-74
2023/09/02 03:08:30;;;;;;;4.25;1.55;;;;;;;22.22;64.33;99852.84;4995915;28;20038;-74
2023/09/02 03:11:04;;;;;;;6.40;1.50;;;;;;;22.18;64.56;99858.50;4997272;28;20487;-74
2023/09/02 03:13:30;;;;;;;5.40;1.40;;;;;;;22.15;64.66;99859.53;4996842;28;20045;-74
2023/09/02 03:15:56;;;;;;;4.53;1.52;;;;;;;22.18;64.41;99853.97;4997390;28;20022;-74
2023/09/02 03:18:23;;;;;;;8.57;1.70;;;;;;;22.19;64.62;99854.84;4996851;28;20037;-74
2023/09/02 03:20:49;;;;;;;5.70;1.80;;;;;;;22.21;64.56;99866.34;4997241;28;20097;-74
2023/09/02 03:23:14;;;;;;;4.37;1.57;;;;;;;22.23;64.52;99867.13;4997183;28;20046;-74
2023/09/02 03:25:40;;;;;;;5.60;1.50;;;;;;;22.28;64.44;99862.34;4997120;28;20026;-74
2023/09/02 03:28:05;;;;;;;4.40;1.70;;;;;;;22.27;64.48;99860.59;4996702;28;20121;-74
2023/09/02 03:30:31;;;;;;;6.55;1.75;;;;;;;22.22;64.79;99855.53;4996906;28;20022;-74
2023/09/02 03:32:56;;;;;;;5.57;1.80;;;;;;;22.18;64.98;99853.13;4997149;28;20038;-74
2023/09/02 03:35:22;;;;;;;5.83;1.50;;;;;;;22.15;65.18;99862.19;4997182;28;20455;-74
2023/09/02 03:37:48;;;;;;;7.13;1.77;;;;;;;22.17;65.07;99868.34;4996817;28;20085;-74
2023/09/02 03:40:13;;;;;;;5.50;1.77;;;;;;;22.16;65.08;99871.97;4997224;28;20030;-74
2023/09/02 03:42:39;;;;;;;6.40;1.95;;;;;;;22.15;65.05;99877.44;4996776;28;20750;-74
2023/09/02 03:45:04;;;;;;;5.77;1.70;;;;;;;22.17;65.09;99897.84;4996853;28;20479;-74
2023/09/02 03:47:31;;;;;;;6.20;1.60;;;;;;;22.17;65.29;99915.75;4996712;28;20105;-74
2023/09/02 03:49:58;;;;;;;5.97;1.80;;;;;;;22.14;64.91;99914.09;4997021;28;20037;-74
2023/09/02 03:52:23;;;;;;;5.10;1.92;;;;;;;22.05;65.31;99912.81;4996690;28;20030;-74
2023/09/02 03:54:48;;;;;;;4.93;1.70;;;;;;;21.99;65.43;99910.50;4996800;28;20077;-74
2023/09/02 03:57:14;;;;;;;5.17;1.97;;;;;;;21.96;65.46;99909.84;4996503;28;20030;-74
2023/09/02 03:59:39;;;;;;;5.30;1.70;;;;;;;21.93;65.70;99906.34;4996735;28;20027;-74
2023/09/02 04:02:04;;;;;;;5.23;1.80;;;;;;;21.91;65.61;99899.38;4996471;28;20026;-74
2023/09/02 04:04:30;;;;;;;6.17;1.60;;;;;;;21.90;65.47;99897.63;4997050;28;20030;-74
2023/09/02 04:06:56;;;;;;;5.03;1.70;;;;;;;21.91;65.88;99897.53;4996857;28;20015;-74
2023/09/02 04:09:21;;;;;;;4.78;1.90;;;;;;;21.90;65.90;99892.28;4996399;28;20050;-74
2023/09/02 04:11:47;;;;;;;8.20;1.73;;;;;;;21.89;65.85;99882.50;4996416;28;20541;-74
2023/09/02 04:14:12;;;;;;;5.93;1.90;;;;;;;21.89;65.93;99891.41;4996851;28;20395;-74
2023/09/02 04:16:38;;;;;;;6.83;1.77;;;;;;;21.88;66.23;99895.03;4992140;28;20428;-74
2023/09/02 04:19:04;;;;;;;4.40;1.58;;;;;;;21.93;65.81;99902.81;4996396;28;20030;-74
2023/09/02 04:21:30;;;;;;;5.27;1.83;;;;;;;21.94;65.73;99893.81;4996660;28;20129;-74
2023/09/02 04:23:56;;;;;;;6.65;1.90;;;;;;;21.90;65.96;99894.97;4996801;28;20081;-74
2023/09/02 04:26:21;;;;;;;5.73;2.03;;;;;;;21.84;65.94;99898.00;4996119;28;20045;-74
2023/09/02 04:28:48;;;;;;;6.38;1.98;;;;;;;21.82;66.07;99898.06;4996726;28;20030;-74
2023/09/02 04:31:13;;;;;;;6.10;2.13;;;;;;;21.76;66.33;99904.63;4996501;28;20031;-74
2023/09/02 04:33:39;;;;;;;6.83;1.70;;;;;;;21.73;66.58;99912.84;4996602;28;20106;-74
2023/09/02 04:36:05;;;;;;;5.57;1.67;;;;;;;21.72;66.40;99911.13;4995127;28;20282;-74
2023/09/02 04:38:31;;;;;;;5.32;1.70;;;;;;;21.73;66.45;99912.00;4996470;28;20065;-74
2023/09/02 04:40:56;;;;;;;4.60;1.70;;;;;;;21.76;66.02;99901.09;4996295;28;20034;-74
2023/09/02 04:43:23;;;;;;;6.00;1.75;;;;;;;21.80;66.15;99898.16;4996594;28;20022;-74
2023/09/02 04:45:48;;;;;;;5.15;1.85;;;;;;;21.85;66.28;99905.09;4996443;28;20022;-74
2023/09/02 04:48:14;;;;;;;5.40;1.80;;;;;;;21.88;65.98;99904.91;4996541;28;20097;-74
2023/09/02 04:50:40;;;;;;;4.68;1.83;;;;;;;21.91;65.95;99904.72;4996404;28;20126;-74
2023/09/02 04:53:07;;;;;;;4.47;1.60;;;;;;;21.91;65.72;99896.69;4996652;28;20031;-74
2023/09/02 04:55:33;;;;;;;6.72;1.65;;;;;;;21.91;65.89;99894.00;4996123;28;20431;-74
2023/09/02 04:57:59;;;;;;;5.28;1.90;;;;;;;21.87;65.84;99887.09;4996236;28;20026;-74
2023/09/02 05:00:26;;;;;;;6.13;1.85;;;;;;;21.87;66.01;99882.59;4996176;28;20695;-74
2023/09/02 05:02:52;;;;;;;5.83;1.70;;;;;;;21.87;66.10;99874.53;4996653;28;20049;-74
2023/09/02 05:05:18;;;;;;;5.35;1.52;;;;;;;21.87;65.84;99865.66;4999615;28;20450;-74
2023/09/02 05:07:45;;;;;;;6.50;1.73;;;;;;;21.83;66.07;99864.94;4999868;28;20037;-74
2023/09/02 05:10:14;;;;;;;4.78;1.52;;;;;;;21.77;66.10;99851.91;4999961;28;20027;-74
2023/09/02 05:12:39;;;;;;;6.37;1.77;;;;;;;21.75;66.15;99861.88;4999428;28;20672;-74
2023/09/02 05:15:05;;;;;;;5.40;2.30;;;;;;;21.70;66.65;99854.06;4999393;28;20033;-73
2023/09/02 05:17:32;;;;;;;5.47;1.80;;;;;;;21.67;66.53;99854.25;4999305;28;20054;-74
2023/09/02 05:19:58;;;;;;;4.43;1.93;;;;;;;21.67;66.50;99848.03;4999563;28;20058;-74
2023/09/02 05:22:23;;;;;;;6.65;1.70;;;;;;;21.65;66.59;99840.09;4998699;28;20206;-74
2023/09/02 05:24:48;;;;;;;5.33;1.90;;;;;;;21.67;66.92;99832.81;4999627;28;20032;-74
2023/09/02 05:27:14;;;;;;;5.55;1.60;;;;;;;21.70;66.70;99831.75;4999326;28;20037;-74
2023/09/02 05:29:39;;;;;;;5.03;1.63;;;;;;;21.73;66.51;99828.94;4999329;28;20034;-74
2023/09/02 05:32:05;;;;;;;5.40;1.80;;;;;;;21.80;66.11;99827.63;4999428;28;20030;-74
2023/09/02 05:34:30;;;;;;;5.43;1.83;;;;;;;21.81;66.25;99818.63;4999304;28;20032;-74
2023/09/02 05:36:56;;;;;;;5.83;1.90;;;;;;;21.83;66.12;99818.53;4999198;28;20498;-74
2023/09/02 05:39:21;;;;;;;5.97;1.97;;;;;;;21.85;65.84;99819.31;4999239;28;20746;-74
2023/09/02 05:41:46;;;;;;;6.00;2.30;;;;;;;21.85;65.92;99809.44;4999228;28;20022;-74
2023/09/02 05:44:13;;;;;;;5.07;1.70;;;;;;;21.86;65.86;99813.84;4999342;28;20529;-74
2023/09/02 05:46:38;;;;;;;6.97;2.10;;;;;;;21.84;65.86;99804.19;4999410;28;20030;-74
2023/09/02 05:49:03;;;;;;;4.30;1.50;;;;;;;21.85;66.02;99787.16;4999294;28;20050;-74
2023/09/02 05:51:29;;;;;;;7.95;1.83;;;;;;;21.79;66.09;99783.84;4999226;28;20050;-74
2023/09/02 05:53:55;;;;;;;7.37;1.80;;;;;;;21.77;66.43;99796.47;4999318;28;20479;-74
2023/09/02 05:56:20;;;;;;;5.05;1.67;;;;;;;21.68;66.86;99794.34;4999085;28;20026;-74
2023/09/02 05:58:46;;;;;;;4.63;1.50;;;;;;;21.68;66.56;99780.94;4999021;28;20033;-74
2023/09/02 06:01:11;;;;;;;7.43;1.70;;;;;;;21.65;66.42;99771.25;4998572;28;20030;-74
2023/09/02 06:03:37;;;;;;;5.73;1.57;;;;;;;21.63;66.75;99756.22;4998900;28;20041;-74
2023/09/02 06:06:10;;;;;;;5.30;1.60;;;;;;;21.57;66.44;99751.19;4999012;28;20022;-74
2023/09/02 06:08:35;;;;;;;6.32;1.90;;;;;;;21.53;66.79;99758.56;4997596;28;20404;-74
2023/09/02 06:11:01;;;;;;;4.57;1.50;;;;;;;21.45;66.70;99759.00;4998739;28;20026;-74
2023/09/02 06:13:26;;;;;;;7.23;1.53;;;;;;;21.43;66.59;99754.69;4998402;28;20061;-74
2023/09/02 06:15:57;;;;;;;5.15;1.50;;;;;;;21.41;66.39;99746.75;4997320;28;20027;-74
2023/09/02 06:18:23;;;;;;;6.10;1.80;;;;;;;21.40;66.22;99728.94;4998495;28;20112;-74
2023/09/02 06:20:48;;;;;;;4.65;1.73;;;;;;;21.40;66.20;99720.91;4998749;28;20065;-74
2023/09/02 06:23:13;;;;;;;5.10;1.60;;;;;;;21.39;66.16;99737.06;4998746;28;20030;-74
2023/09/02 06:25:39;;;;;;;5.70;1.60;;;;;;;21.38;66.10;99736.22;4998358;28;20446;-74
2023/09/02 06:28:05;;;;;;;5.03;1.50;;;;;;;21.42;65.83;99736.88;4998086;28;20037;-74
2023/09/02 06:30:30;;;;;;;6.85;1.50;;;;;;;21.46;65.74;99720.56;4998314;28;20105;-74
2023/09/02 06:32:55;;;;;;;6.40;1.83;;;;;;;21.48;65.40;99705.25;4998398;28;20038;-74
2023/09/02 06:35:21;;;;;;;5.20;1.40;;;;;;;21.46;65.28;99711.63;4997087;28;20053;-74
2023/09/02 06:37:46;;;;;;;5.60;1.60;;;;;;;21.50;65.51;99721.25;4998252;28;20037;-74
2023/09/02 06:40:11;;;;;;;5.95;1.88;;;;;;;21.55;65.52;99742.38;4998416;28;20402;-74
2023/09/02 06:42:37;;;;;;;4.60;1.40;;;;;;;21.53;65.29;99739.81;4998148;28;20034;-74
2023/09/02 06:45:02;;;;;;;4.87;1.43;;;;;;;21.57;65.00;99735.13;4998272;28;20072;-75
2023/09/02 06:47:28;;;;;;;5.85;1.50;;;;;;;21.60;64.84;99740.31;4997865;28;20030;-74
2023/09/02 06:49:53;;;;;;;4.60;1.10;;;;;;;21.58;64.87;99747.56;4998288;28;20026;-74
2023/09/02 06:52:19;;;;;;;4.77;1.20;;;;;;;21.63;64.69;99741.00;4996850;28;20033;-75
2023/09/02 06:54:48;;;;;;;6.80;1.60;;;;;;;21.68;64.65;99748.81;4998061;28;20044;-74
2023/09/02 06:57:14;;;;;;;4.70;1.67;;;;;;;21.78;64.72;99747.28;4997416;28;20038;-74
2023/09/02 06:59:39;;;;;;;5.65;1.60;;;;;;;21.78;64.80;99760.69;4997788;28;20504;-74
2023/09/02 07:02:05;;;;;;;8.23;1.60;;;;;;;21.78;64.44;99766.03;4997640;28;20022;-74
2023/09/02 07:04:31;;;;;;;4.53;1.60;;;;;;;21.80;64.73;99766.81;4997927;28;20030;-74
2023/09/02 07:06:56;;;;;;;4.87;1.47;;;;;;;21.82;64.77;99765.88;4996444;28;20026;-74
2023/09/02 07:09:22;;;;;;;6.23;1.83;;;;;;;21.83;64.27;99756.91;4997822;28;20026;-74
2023/09/02 07:11:47;;;;;;;5.40;1.53;;;;;;;21.83;64.13;99752.38;4997654;28;20053;-74
2023/09/02 07:14:12;;;;;;;5.55;1.80;;;;;;;21.84;64.27;99750.59;4997723;28;20038;-74
2023/09/02 07:16:38;;;;;;;5.50;1.67;;;;;;;21.84;64.43;99753.25;4996035;28;20487;-74
2023/09/02 07:19:03;;;;;;;4.80;1.50;;;;;;;21.88;64.47;99757.47;4997501;28;20090;-74
2023/09/02 07:21:29;;;;;;;4.57;1.60;;;;;;;21.87;64.48;99753.06;4997657;28;20098;-74
2023/09/02 07:23:54;;;;;;;5.28;1.40;;;;;;;21.87;64.36;99739.66;4997697;28;20045;-75
2023/09/02 07:26:20;;;;;;;5.23;1.60;;;;;;;21.84;64.70;99742.53;4996917;28;20035;-74
2023/09/02 07:28:45;;;;;;;4.40;1.50;;;;;;;21.86;64.49;99764.75;4996725;28;20380;-73
2023/09/02 07:31:11;;;;;;;4.97;1.70;;;;;;;21.86;64.44;99757.56;4996039;28;20281;-73
2023/09/02 07:33:37;;;;;;;4.70;1.60;;;;;;;21.87;64.45;99755.75;4995171;28;20475;-73
2023/09/02 07:36:10;;;;;;;6.80;1.83;;;;;;;21.84;64.54;99761.31;4995101;28;20030;-72
2023/09/02 07:38:37;;;;;;;5.22;1.65;;;;;;;21.91;64.55;99766.19;4994060;28;20479;-72
2023/09/02 07:41:02;;;;;;;4.82;1.80;;;;;;;22.01;64.22;99768.34;4995961;28;20475;-73
2023/09/02 07:43:28;;;;;;;5.67;1.67;;;;;;;22.05;64.20;99767.19;4996453;28;20026;-73
2023/09/02 07:45:54;;;;;;;4.05;1.50;;;;;;;22.08;64.00;99772.38;4995092;28;20018;-74
2023/09/02 07:48:19;;;;;;;5.60;1.57;;;;;;;22.12;64.06;99770.38;4986452;28;20067;-73
2023/09/02 07:50:45;;;;;;;4.53;1.57;;;;;;;22.17;63.51;99773.63;4993147;28;20459;-73
2023/09/02 07:53:10;;;;;;;6.68;1.67;;;;;;;22.25;63.39;99784.75;4995021;28;20030;-73
2023/09/02 07:55:36;;;;;;;6.43;1.60;;;;;;;22.33;63.14;99792.31;4993582;28;20069;-72
2023/09/02 07:58:02;;;;;;;4.93;1.73;;;;;;;22.40;63.08;99792.81;4990196;28;20026;-71
2023/09/02 08:00:28;;;;;;;4.70;1.60;;;;;;;22.46;62.89;99776.34;4996078;28;20034;-72
2023/09/02 08:02:54;;;;;;;6.93;2.20;;;;;;;22.47;63.02;99767.38;4987603;28;20031;-73
2023/09/02 08:05:19;;;;;;;5.83;1.60;;;;;;;22.45;62.84;99759.41;4993084;28;20037;-72
2023/09/02 08:07:45;;;;;;;7.17;2.00;;;;;;;22.45;62.88;99753.16;4995907;28;20570;-73
2023/09/02 08:10:10;;;;;;;6.47;1.97;;;;;;;22.44;63.23;99741.56;4996888;28;20105;-72
2023/09/02 08:12:36;;;;;;;7.55;1.70;;;;;;;22.43;63.70;99733.59;4996369;28;20388;-72
2023/09/02 08:15:01;;;;;;;5.57;2.00;;;;;;;22.40;63.92;99728.44;4996479;28;20558;-72
2023/09/02 08:17:27;;;;;;;6.57;1.90;;;;;;;22.38;64.19;99749.97;5002230;28;20027;-72
2023/09/02 08:19:52;;;;;;;5.53;1.90;;;;;;;22.39;64.63;99773.16;4994639;28;20034;-72
2023/09/02 08:22:18;;;;;;;8.53;1.87;;;;;;;22.41;64.57;99783.81;4995421;28;20514;-72
2023/09/02 08:24:43;;;;;;;5.13;1.70;;;;;;;22.44;64.54;99778.25;4996756;28;20033;-72
2023/09/02 08:27:09;;;;;;;7.73;2.20;;;;;;;22.49;64.36;99789.59;4995131;28;20027;-71
2023/09/02 08:29:34;;;;;;;7.30;2.10;;;;;;;22.52;64.44;99789.41;4995744;28;20493;-72
2023/09/02 08:32:00;;;;;;;5.87;1.80;;;;;;;22.55;64.56;99789.25;4996279;28;20050;-75
2023/09/02 08:34:26;;;;;;;5.40;1.50;;;;;;;22.57;64.68;99800.75;4994868;28;20046;-74
2023/09/02 08:36:51;;;;;;;7.10;1.73;;;;;;;22.54;65.02;99805.41;4992682;28;20061;-74
2023/09/02 08:39:16;;;;;;;8.05;2.05;;;;;;;22.60;65.04;99802.34;4996015;28;20472;-75
2023/09/02 08:41:45;;;;;;;6.77;1.63;;;;;;;22.53;65.41;99790.28;4996224;28;20065;-73
2023/09/02 08:44:15;;;;;;;6.07;1.73;;;;;;;22.59;65.38;99788.09;4997826;28;20026;-73
2023/09/02 08:46:41;;;;;;;5.43;1.83;;;;;;;22.58;65.64;99781.00;4996738;28;20045;-71
2023/09/02 08:49:08;;;;;;;5.75;1.83;;;;;;;22.57;65.84;99781.97;4995606;28;20025;-73
2023/09/02 08:51:35;;;;;;;5.53;1.80;;;;;;;22.59;65.90;99784.53;4996930;28;20022;-72
2023/09/02 08:54:01;;;;;;;5.57;1.73;;;;;;;22.62;65.95;99774.47;4999019;28;20418;-72
2023/09/02 08:56:28;;;;;;;5.88;1.77;;;;;;;22.62;66.43;99765.53;4993652;28;20061;-73
2023/09/02 08:58:54;;;;;;;8.57;2.20;;;;;;;22.62;66.63;99774.47;4993142;28;20027;-90
2023/09/02 09:01:21;;;;;;;6.13;1.80;;;;;;;22.63;66.66;99770.81;4999782;28;20022;-84
2023/09/02 09:03:54;;;;;;;5.97;2.00;;;;;;;22.57;68.36;99763.16;4998399;28;20034;-81
2023/09/02 09:06:22;;;;;;;7.60;2.45;;;;;;;22.58;67.85;99755.97;4999536;28;20022;-84
2023/09/02 09:08:53;;;;;;;10.40;2.40;;;;;;;22.59;68.09;99763.94;4997157;28;20033;-81
2023/09/02 09:11:25;;;;;;;5.38;2.10;;;;;;;22.61;68.09;99779.91;4998983;28;20049;-81
2023/09/02 09:13:53;;;;;;;8.23;2.42;;;;;;;22.61;68.36;99777.25;5000692;28;20652;-75
2023/09/02 09:16:33;;;;;;;6.15;2.15;;;;;;;22.58;68.67;99775.63;4998826;28;20399;-74
2023/09/02 09:19:02;;;;;;;6.85;2.10;;;;;;;22.59;68.82;99772.00;4996484;28;20419;-75
2023/09/02 09:21:28;;;;;;;6.67;2.47;;;;;;;22.60;68.97;99773.72;4997145;28;20026;-76
2023/09/02 09:23:53;;;;;;;7.45;2.60;;;;;;;22.60;69.30;99764.78;4999321;28;20467;-77
2023/09/02 09:26:21;;;;;;;7.73;2.30;;;;;;;22.60;69.46;99775.50;4998724;28;20082;-76
2023/09/02 09:28:53;;;;;;;5.97;2.85;;;;;;;22.60;70.26;99779.06;4996913;28;20029;-77
2023/09/02 09:31:20;;;;;;;7.47;2.60;;;;;;;22.57;70.47;99790.00;4998372;28;20073;-77
2023/09/02 09:33:54;;;;;;;7.67;2.80;;;;;;;22.49;71.11;99786.91;4998719;28;20030;-75
2023/09/02 09:36:24;;;;;;;6.10;2.67;;;;;;;22.54;70.73;99790.16;5001972;28;20026;-76
2023/09/02 09:38:57;;;;;;;5.93;2.83;;;;;;;22.54;71.38;99811.63;5005898;28;20026;-74
2023/09/02 09:41:27;;;;;;;7.45;2.72;;;;;;;22.59;71.05;99809.56;5008354;28;20480;-75
2023/09/02 09:44:10;;;;;;;7.28;2.92;;;;;;;22.61;71.51;99820.19;5009222;28;20072;-75
2023/09/02 09:46:56;;;;;;;5.40;2.60;;;;;;;22.57;71.80;99819.53;5005278;28;20018;-74
2023/09/02 09:49:21;;;;;;;7.13;2.85;;;;;;;22.64;71.22;99819.97;4996844;28;20034;-76
2023/09/02 09:51:47;;;;;;;5.97;2.90;;;;;;;22.66;71.05;99820.75;4998988;28;20454;-76
2023/09/02 09:54:12;;;;;;;6.23;2.50;;;;;;;22.72;70.90;99822.19;4997836;28;20022;-77
2023/09/02 09:56:46;;;;;;;6.40;2.58;;;;;;;22.78;70.69;99822.69;4998666;28;20569;-78
2023/09/02 09:59:12;;;;;;;8.10;2.60;;;;;;;22.84;70.72;99821.44;4998444;28;20030;-78
2023/09/02 10:01:38;;;;;;;8.05;2.80;;;;;;;22.88;70.56;99822.97;4997837;28;20026;-76
2023/09/02 10:04:08;;;;;;;6.63;2.80;;;;;;;22.92;70.64;99826.34;4999087;28;20080;-80
2023/09/02 10:06:39;;;;;;;8.32;3.03;;;;;;;22.98;70.66;99835.81;4998768;28;20453;-83
2023/09/02 10:09:05;;;;;;;7.00;2.70;;;;;;;23.00;70.31;99831.19;4998216;28;20117;-80
2023/09/02 10:11:30;;;;;;;5.90;2.57;;;;;;;23.04;70.26;99833.59;4997888;28;20042;-84
2023/09/02 10:13:57;;;;;;;5.83;2.70;;;;;;;23.10;70.31;99835.03;4997107;28;20126;-89
2023/09/02 10:16:24;;;;;;;7.37;2.60;;;;;;;23.17;70.08;99831.00;4998068;28;20360;-80
2023/09/02 10:18:51;;;;;;;6.32;2.60;;;;;;;23.23;69.87;99840.50;4998288;28;20018;-78
2023/09/02 10:21:20;;;;;;;7.28;2.75;;;;;;;23.30;69.92;99846.38;4998806;28;20041;-78
2023/09/02 10:23:54;;;;;;;6.18;2.85;;;;;;;23.36;69.65;99848.66;4998497;28;20065;-80
2023/09/02 10:26:39;;;;;;;8.70;3.03;;;;;;;23.45;69.83;99840.00;4994386;28;20081;-81
2023/09/02 10:29:12;;;;;;;8.13;2.87;;;;;;;23.58;69.42;99841.91;4990465;28;20445;-89
2023/09/02 10:31:45;;;;;;;7.72;2.90;;;;;;;23.69;69.09;99846.56;4995797;28;20045;-81
2023/09/02 10:34:18;;;;;;;10.10;2.90;;;;;;;23.80;68.84;99839.53;4992592;28;20023;-80
2023/09/02 10:36:57;;;;;;;6.82;2.78;;;;;;;23.91;68.72;99837.94;4998035;28;20487;-83
2023/09/02 10:39:38;;;;;;;6.40;2.70;;;;;;;24.04;68.32;99836.19;4997934;28;20371;-86
2023/09/02 10:42:03;;;;;;;8.20;2.70;;;;;;;24.19;67.97;99833.41;4997995;28;20026;-87
2023/09/02 10:44:29;;;;;;;8.73;2.83;;;;;;;24.33;67.88;99832.44;4998311;28;20510;-82
2023/09/02 10:46:55;;;;;;;14.60;2.90;;;;;;;24.45;67.18;99842.38;4997971;28;20023;-83
2023/09/02 10:49:22;;;;;;;9.63;2.80;;;;;;;24.57;67.01;99837.97;4998211;28;20308;-85
2023/09/02 10:51:48;;;;;;;7.57;2.70;;;;;;;24.68;66.50;99833.66;4998181;28;20376;-85
2023/09/02 10:54:13;;;;;;;7.72;2.55;;;;;;;24.76;66.03;99829.50;4998049;28;20104;-82
2023/09/02 10:56:38;;;;;;;8.07;2.90;;;;;;;24.82;65.78;99830.91;4997678;28;20066;-80
2023/09/02 10:59:05;;;;;;;6.30;2.60;;;;;;;24.90;65.40;99827.66;4998234;28;20026;-80
2023/09/02 11:01:45;;;;;;;7.45;2.63;;;;;;;24.98;65.37;99829.81;4997253;28;20022;-81
2023/09/02 11:04:11;;;;;;;7.38;2.58;;;;;;;25.06;65.12;99830.09;4998031;28;20026;-81
2023/09/02 11:06:37;;;;;;;8.30;2.80;;;;;;;25.15;64.80;99826.75;4997977;28;20027;-81
2023/09/02 11:09:02;;;;;;;8.40;2.65;;;;;;;25.23;64.26;99829.75;4997712;28;20518;-82
2023/09/02 11:12:06;;;;;;;7.00;2.60;;;;;;;25.29;64.32;99838.38;4997470;28;20479;-82
2023/09/02 11:14:32;;;;;;;5.80;2.60;;;;;;;25.40;63.72;99835.72;4997781;28;20019;-82
2023/09/02 11:17:28;;;;;;;6.75;2.75;;;;;;;25.44;62.21;99853.44;4997377;28;20035;-81
2023/09/02 11:20:02;;;;;;;5.32;2.33;;;;;;;25.51;61.37;99848.44;4993025;28;20030;-81
2023/09/02 11:22:50;;;;;;;5.63;2.23;;;;;;;25.61;61.47;99845.94;4997699;28;20034;-81
2023/09/02 11:25:36;;;;;;;5.25;2.25;;;;;;;25.72;61.29;99840.63;4997468;28;20030;-81
2023/09/02 11:28:22;;;;;;;8.07;2.70;;;;;;;25.91;60.09;99833.81;4997612;28;20117;-82
2023/09/02 11:31:12;;;;;;;7.20;2.45;;;;;;;26.13;60.44;99830.38;4995821;28;20057;-81
2023/09/02 11:33:45;;;;;;;11.60;3.67;;;;;;;26.29;59.79;99835.47;4997659;28;20025;-81